createdAt,value
2018-12-02T00:00:30.076Z,57.46
2018-12-02T00:03:31.413Z,57.69
2018-12-02T00:06:01.873Z,58.04
2018-12-02T00:08:32.084Z,58.58
2018-12-02T00:11:02.268Z,59.06
2018-12-02T00:13:32.485Z,57.66
2018-12-02T00:16:03.340Z,58.95
2018-12-02T00:18:33.803Z,58.49
2018-12-02T00:21:04.239Z,57.69
2018-12-02T00:23:34.404Z,57.57
2018-12-02T00:26:05.217Z,59.34
2018-12-02T00:28:35.932Z,59.83
2018-12-02T00:31:06.830Z,59.69
2018-12-02T00:33:37.383Z,59.92
2018-12-02T00:36:08.337Z,58.95
2018-12-02T00:38:38.907Z,58.47
2018-12-02T00:41:09.153Z,58.75
2018-12-02T00:43:39.715Z,58.70
2018-12-02T00:46:10.773Z,58.72
2018-12-02T00:48:40.912Z,59.12
2018-12-02T00:51:11.189Z,59.53
2018-12-02T00:53:41.652Z,60.00
2018-12-02T00:56:10.860Z,59.14
2018-12-02T00:58:41.572Z,58.94
2018-12-02T01:01:12.068Z,58.76
2018-12-02T01:03:42.358Z,58.69
2018-12-02T01:06:14.120Z,59.45
2018-12-02T01:08:43.796Z,59.32
2018-12-02T01:11:14.200Z,59.18
2018-12-02T01:13:44.712Z,59.23
2018-12-02T01:16:15.883Z,59.18
2018-12-02T01:18:46.180Z,59.13
2018-12-02T01:21:16.672Z,59.30
2018-12-02T01:23:47.181Z,59.69
2018-12-02T01:26:17.677Z,58.78
2018-12-02T01:28:48.393Z,59.05
2018-12-02T01:31:18.908Z,59.17
2018-12-02T01:33:49.778Z,58.17
2018-12-02T01:36:20.949Z,58.40
2018-12-02T01:38:51.449Z,58.74
2018-12-02T01:41:21.864Z,59.02
2018-12-02T01:43:52.345Z,59.61
2018-12-02T01:46:23.824Z,59.05
2018-12-02T01:48:54.456Z,58.27
2018-12-02T01:51:24.552Z,59.27
2018-12-02T01:53:54.761Z,59.07
2018-12-02T01:56:25.604Z,58.96
2018-12-02T01:58:55.877Z,59.33
2018-12-02T02:01:26.386Z,59.30
2018-12-02T02:03:57.076Z,58.68
2018-12-02T02:06:28.119Z,58.91
2018-12-02T02:08:58.505Z,59.33
2018-12-02T02:11:29.074Z,59.34
2018-12-02T02:13:59.292Z,60.61
2018-12-02T02:16:30.113Z,61.47
2018-12-02T02:19:00.448Z,61.32
2018-12-02T02:21:31.046Z,60.90
2018-12-02T02:24:01.609Z,60.60
2018-12-02T02:26:32.973Z,59.57
2018-12-02T02:29:03.477Z,58.71
2018-12-02T02:31:34.351Z,59.39
2018-12-02T02:34:04.663Z,60.15
2018-12-02T02:36:36.088Z,59.58
2018-12-02T02:39:08.206Z,60.88
2018-12-02T02:41:38.687Z,60.48
2018-12-02T02:44:08.902Z,60.05
2018-12-02T02:46:40.292Z,60.91
2018-12-02T02:49:10.426Z,60.76
2018-12-02T02:51:41.133Z,60.38
2018-12-02T02:54:11.422Z,60.01
2018-12-02T02:56:42.446Z,59.85
2018-12-02T02:59:12.934Z,60.14
2018-12-02T03:01:43.399Z,60.58
2018-12-02T03:04:13.717Z,60.40
2018-12-02T03:06:44.737Z,59.45
2018-12-02T03:09:15.508Z,60.25
2018-12-02T03:11:46.111Z,60.17
2018-12-02T03:14:16.642Z,60.44
2018-12-02T03:16:47.630Z,61.72
2018-12-02T03:19:18.013Z,60.90
2018-12-02T03:21:48.758Z,60.41
2018-12-02T03:24:19.452Z,60.60
2018-12-02T03:26:50.746Z,60.43
2018-12-02T03:29:20.972Z,59.64
2018-12-02T03:31:51.613Z,59.61
2018-12-02T03:34:22.088Z,59.78
2018-12-02T03:36:52.854Z,59.11
2018-12-02T03:39:23.327Z,60.28
2018-12-02T03:41:53.676Z,59.69
2018-12-02T03:44:23.929Z,59.65
2018-12-02T03:46:54.913Z,59.82
2018-12-02T03:49:25.307Z,60.22
2018-12-02T03:51:55.931Z,59.72
2018-12-02T03:54:26.232Z,59.27
2018-12-02T03:56:57.771Z,59.32
2018-12-02T03:59:28.183Z,60.23
2018-12-02T04:01:58.639Z,59.22
2018-12-02T04:04:29.306Z,58.88
2018-12-02T04:06:59.972Z,59.40
2018-12-02T04:09:30.311Z,59.55
2018-12-02T04:12:00.584Z,60.03
2018-12-02T04:14:30.912Z,59.81
2018-12-02T04:17:01.697Z,59.73
2018-12-02T04:19:32.206Z,60.82
2018-12-02T04:22:02.756Z,62.24
2018-12-02T04:24:33.487Z,63.19
2018-12-02T04:27:04.253Z,64.47
2018-12-02T04:29:34.580Z,64.27
2018-12-02T04:32:05.120Z,63.02
2018-12-02T04:34:35.388Z,62.36
2018-12-02T04:37:05.893Z,61.79
2018-12-02T04:39:36.051Z,61.32
2018-12-02T04:42:06.593Z,60.73
2018-12-02T04:44:36.909Z,60.81
2018-12-02T04:47:08.059Z,59.47
2018-12-02T04:49:38.338Z,58.42
2018-12-02T04:52:08.836Z,58.97
2018-12-02T04:54:39.320Z,59.76
2018-12-02T04:57:10.757Z,60.08
2018-12-02T04:59:41.401Z,60.91
2018-12-02T05:02:11.607Z,60.94
2018-12-02T05:04:41.320Z,61.09
2018-12-02T05:07:11.973Z,61.52
2018-12-02T05:09:41.614Z,61.29
2018-12-02T05:12:11.353Z,61.33
2018-12-02T05:14:41.204Z,60.93
2018-12-02T05:17:11.042Z,61.15
2018-12-02T05:19:40.947Z,61.19
2018-12-02T05:22:10.714Z,61.43
2018-12-02T05:24:40.509Z,61.70
2018-12-02T05:27:10.248Z,61.27
2018-12-02T05:29:40.008Z,62.77
2018-12-02T05:32:09.854Z,61.50
2018-12-02T05:34:39.584Z,60.78
2018-12-02T05:37:09.351Z,61.18
2018-12-02T05:39:39.129Z,61.19
2018-12-02T05:42:13.921Z,60.72
2018-12-02T05:44:43.626Z,59.60
2018-12-02T05:47:13.916Z,60.20
2018-12-02T05:49:43.633Z,60.03
2018-12-02T05:52:13.471Z,60.77
2018-12-02T05:54:43.300Z,61.86
2018-12-02T05:57:13.069Z,61.66
2018-12-02T05:59:42.867Z,61.64
2018-12-02T06:02:12.529Z,60.48
2018-12-02T06:04:42.309Z,59.60
2018-12-02T06:07:12.152Z,60.22
2018-12-02T06:09:41.766Z,59.47
2018-12-02T06:12:11.592Z,60.16
2018-12-02T06:14:41.436Z,59.97
2018-12-02T06:17:11.206Z,59.64
2018-12-02T06:19:41.017Z,59.33
2018-12-02T06:22:10.765Z,60.08
2018-12-02T06:24:40.549Z,59.32
2018-12-02T06:27:11.075Z,59.36
2018-12-02T06:29:40.839Z,59.59
2018-12-02T06:32:10.614Z,59.66
2018-12-02T06:34:40.568Z,59.82
2018-12-02T06:37:10.424Z,58.77
2018-12-02T06:39:40.714Z,59.09
2018-12-02T06:42:11.086Z,58.37
2018-12-02T06:44:41.713Z,58.83
2018-12-02T06:47:13.175Z,59.24
2018-12-02T06:49:43.234Z,59.92
2018-12-02T06:52:13.044Z,60.52
2018-12-02T06:54:47.825Z,60.78
2018-12-02T06:57:25.467Z,60.55
2018-12-02T07:00:04.657Z,59.82
2018-12-02T07:02:52.197Z,59.15
2018-12-02T07:05:28.202Z,58.63
2018-12-02T07:11:46.070Z,57.33
2018-12-02T07:14:16.933Z,56.16
2018-12-02T07:16:46.765Z,55.89
2018-12-02T07:19:20.934Z,54.78
2018-12-02T07:21:56.872Z,51.66
2018-12-02T07:24:29.372Z,51.05
2018-12-02T07:27:01.989Z,49.14
2018-12-02T07:29:33.187Z,47.23
2018-12-02T07:32:03.493Z,47.67
2018-12-02T07:34:33.399Z,46.08
2018-12-02T07:37:07.909Z,45.65
2018-12-02T07:40:51.083Z,45.20
2018-12-02T07:43:21.015Z,43.82
2018-12-02T07:45:50.706Z,42.36
2018-12-02T07:48:20.389Z,41.39
2018-12-02T07:50:50.226Z,41.05
2018-12-02T07:53:20.594Z,39.45
2018-12-02T07:55:50.539Z,38.17
2018-12-02T07:58:20.279Z,37.76
2018-12-02T08:00:50.072Z,37.76
2018-12-02T08:03:19.891Z,38.96
2018-12-02T08:05:49.615Z,38.00
2018-12-02T08:08:19.426Z,36.90
2018-12-02T08:10:49.194Z,36.93
2018-12-02T08:13:19.053Z,37.15
2018-12-02T08:15:48.870Z,37.41
2018-12-02T08:18:18.625Z,38.28
2018-12-02T08:20:48.411Z,38.16
2018-12-02T08:23:18.279Z,37.01
2018-12-02T08:25:48.300Z,37.57
2018-12-02T08:28:18.155Z,38.73
2018-12-02T08:30:47.941Z,39.49
2018-12-02T08:33:17.802Z,38.39
2018-12-02T08:35:47.643Z,38.06
2018-12-02T08:38:17.729Z,38.78
2018-12-02T08:40:47.621Z,38.03
2018-12-02T08:43:17.374Z,37.28
2018-12-02T08:45:47.115Z,35.85
2018-12-02T08:48:17.046Z,37.30
2018-12-02T08:50:46.966Z,35.29
2018-12-02T08:53:16.885Z,34.75
2018-12-02T08:55:46.679Z,34.58
2018-12-02T08:58:16.421Z,32.98
2018-12-02T09:00:46.261Z,34.26
2018-12-02T09:03:16.087Z,31.02
2018-12-02T09:05:46.034Z,31.55
2018-12-02T09:08:15.986Z,32.02
2018-12-02T09:10:46.404Z,31.15
2018-12-02T09:13:16.068Z,29.70
2018-12-02T09:15:46.036Z,29.72
2018-12-02T09:18:16.416Z,30.43
2018-12-02T09:20:46.920Z,30.12
2018-12-02T09:23:17.337Z,29.55
2018-12-02T09:25:47.652Z,29.59
2018-12-02T09:28:19.056Z,29.96
2018-12-02T09:30:49.133Z,28.77
2018-12-02T09:33:19.301Z,27.57
2018-12-02T09:35:49.871Z,27.64
2018-12-02T09:38:21.158Z,26.77
2018-12-02T09:40:51.497Z,27.27
2018-12-02T09:43:21.962Z,25.75
2018-12-02T09:45:52.509Z,26.12
2018-12-02T09:48:22.773Z,25.65
2018-12-02T09:50:53.275Z,26.21
2018-12-02T09:53:23.761Z,25.90
2018-12-02T09:55:55.105Z,24.72
2018-12-02T09:58:28.312Z,24.23
2018-12-02T10:01:00.761Z,23.90
2018-12-02T10:03:31.088Z,24.53
2018-12-02T10:06:01.661Z,26.27
2018-12-02T10:08:32.403Z,25.82
2018-12-02T10:11:02.801Z,23.64
2018-12-02T10:13:33.199Z,22.17
2018-12-02T10:16:03.548Z,23.11
2018-12-02T10:18:34.520Z,22.85
2018-12-02T10:21:04.758Z,24.96
2018-12-02T10:23:34.946Z,25.25
2018-12-02T10:26:05.315Z,24.55
2018-12-02T10:28:36.331Z,22.75
2018-12-02T10:31:06.824Z,23.68
2018-12-02T10:33:37.263Z,24.28
2018-12-02T10:36:07.697Z,24.29
2018-12-02T10:38:41.959Z,24.87
2018-12-02T10:41:12.342Z,23.86
2018-12-02T10:43:42.928Z,23.74
2018-12-02T10:46:13.506Z,23.71
2018-12-02T10:48:44.487Z,23.57
2018-12-02T10:51:14.818Z,22.50
2018-12-02T10:53:45.123Z,22.80
2018-12-02T10:56:15.617Z,23.37
2018-12-02T10:58:49.478Z,22.72
2018-12-02T11:01:20.319Z,21.47
2018-12-02T11:03:50.537Z,21.28
2018-12-02T11:06:20.789Z,22.07
2018-12-02T11:08:51.623Z,20.60
2018-12-02T11:11:22.047Z,19.23
2018-12-02T11:13:52.505Z,18.11
2018-12-02T11:16:23.028Z,18.87
2018-12-02T11:18:53.837Z,19.11
2018-12-02T11:21:24.606Z,19.68
2018-12-02T11:23:55.098Z,18.19
2018-12-02T11:26:25.564Z,17.92
2018-12-02T11:28:56.805Z,18.50
2018-12-02T11:31:27.126Z,18.09
2018-12-02T11:33:57.625Z,17.71
2018-12-02T11:36:28.091Z,16.89
2018-12-02T11:39:00.476Z,17.12
2018-12-02T11:41:31.128Z,17.98
2018-12-02T11:44:01.477Z,17.89
2018-12-02T11:46:31.725Z,16.63
2018-12-02T11:49:02.741Z,18.70
2018-12-02T11:51:33.166Z,17.10
2018-12-02T11:54:03.491Z,17.88
2018-12-02T11:56:33.941Z,18.05
2018-12-02T11:59:09.732Z,19.04
2018-12-02T12:01:40.309Z,17.31
2018-12-02T12:04:10.752Z,17.61
2018-12-02T12:06:41.299Z,16.91
2018-12-02T12:09:12.392Z,16.77
2018-12-02T12:11:42.728Z,17.34
2018-12-02T12:14:13.247Z,16.56
2018-12-02T12:16:43.656Z,18.45
2018-12-02T12:19:14.492Z,19.17
2018-12-02T12:21:45.124Z,18.29
2018-12-02T12:24:15.609Z,18.86
2018-12-02T12:26:46.328Z,17.33
2018-12-02T12:29:17.538Z,17.93
2018-12-02T12:31:48.050Z,18.64
2018-12-02T12:34:18.792Z,18.10
2018-12-02T12:36:49.254Z,17.61
2018-12-02T12:39:21.464Z,17.21
2018-12-02T12:41:51.956Z,18.40
2018-12-02T12:44:22.476Z,19.08
2018-12-02T12:46:53.193Z,17.87
2018-12-02T12:49:23.991Z,18.41
2018-12-02T12:51:54.281Z,18.70
2018-12-02T12:54:25.176Z,18.48
2018-12-02T12:56:55.765Z,17.61
2018-12-02T12:59:27.794Z,17.26
2018-12-02T13:02:00.096Z,17.78
2018-12-02T13:04:29.569Z,17.64
2018-12-02T13:07:00.150Z,17.08
2018-12-02T13:09:31.941Z,18.78
2018-12-02T13:12:02.865Z,18.33
2018-12-02T13:14:35.317Z,17.89
2018-12-02T13:17:06.191Z,17.88
2018-12-02T13:19:37.741Z,17.79
2018-12-02T13:22:08.654Z,17.80
2018-12-02T13:24:40.476Z,18.37
2018-12-02T13:27:11.141Z,19.19
2018-12-02T13:29:42.842Z,19.57
2018-12-02T13:32:13.208Z,20.82
2018-12-02T13:34:42.988Z,22.66
2018-12-02T13:37:12.803Z,23.16
2018-12-02T13:39:44.017Z,23.39
2018-12-02T13:42:20.177Z,24.34
2018-12-02T13:44:50.637Z,25.85
2018-12-02T13:47:20.676Z,26.55
2018-12-02T13:49:51.181Z,27.31
2018-12-02T13:52:21.018Z,28.26
2018-12-02T13:54:50.698Z,29.28
2018-12-02T13:57:20.555Z,30.14
2018-12-02T13:59:50.394Z,31.79
2018-12-02T14:02:20.213Z,32.08
2018-12-02T14:04:50.109Z,32.89
2018-12-02T14:07:19.802Z,33.04
2018-12-02T14:09:49.578Z,34.12
2018-12-02T14:12:19.477Z,34.04
2018-12-02T14:14:49.835Z,33.87
2018-12-02T14:17:22.300Z,35.09
2018-12-02T14:19:52.834Z,32.85
2018-12-02T14:22:22.722Z,32.76
2018-12-02T14:24:52.785Z,32.88
2018-12-02T14:27:22.633Z,36.18
2018-12-02T14:29:56.101Z,43.13
2018-12-02T14:32:27.118Z,36.31
2018-12-02T14:34:56.975Z,36.23
2018-12-02T14:37:26.800Z,37.74
2018-12-02T14:39:57.488Z,36.78
2018-12-02T14:42:27.242Z,36.68
2018-12-02T14:44:57.045Z,37.13
2018-12-02T14:47:26.807Z,36.45
2018-12-02T14:49:56.536Z,37.94
2018-12-02T14:52:26.331Z,41.84
2018-12-02T14:54:56.023Z,47.63
2018-12-02T14:57:25.805Z,41.52
2018-12-02T14:59:55.548Z,42.37
2018-12-02T15:02:25.401Z,40.93
2018-12-02T15:04:55.277Z,42.21
2018-12-02T15:07:25.134Z,43.21
2018-12-02T15:09:54.883Z,43.09
2018-12-02T15:12:24.692Z,46.10
2018-12-02T15:14:54.537Z,41.58
2018-12-02T15:17:24.366Z,41.12
2018-12-02T15:19:54.182Z,40.63
2018-12-02T15:22:24.092Z,42.07
2018-12-02T15:24:53.954Z,41.71
2018-12-02T15:27:23.810Z,41.00
2018-12-02T15:29:53.681Z,40.18
2018-12-02T15:32:23.503Z,42.12
2018-12-02T15:34:53.296Z,43.89
2018-12-02T15:37:23.139Z,45.14
2018-12-02T15:39:52.976Z,46.53
2018-12-02T15:42:23.289Z,46.78
2018-12-02T15:44:53.150Z,47.06
2018-12-02T15:47:23.003Z,45.09
2018-12-02T15:49:52.770Z,46.41
2018-12-02T15:52:22.537Z,46.53
2018-12-02T15:54:52.338Z,46.21
2018-12-02T15:57:22.093Z,44.40
2018-12-02T15:59:52.007Z,46.28
2018-12-02T16:02:21.906Z,42.28
2018-12-02T16:04:51.897Z,43.40
2018-12-02T16:07:22.116Z,42.88
2018-12-02T16:09:52.043Z,42.98
2018-12-02T16:12:21.853Z,42.49
2018-12-02T16:14:51.868Z,41.82
2018-12-02T16:17:21.582Z,41.77
2018-12-02T16:19:51.456Z,42.18
2018-12-02T16:22:21.273Z,42.48
2018-12-02T16:24:51.093Z,42.89
2018-12-02T16:27:20.872Z,42.86
2018-12-02T16:29:50.653Z,43.63
2018-12-02T16:32:20.496Z,44.14
2018-12-02T16:34:50.264Z,44.60
2018-12-02T16:37:20.114Z,45.12
2018-12-02T16:39:49.944Z,46.67
2018-12-02T16:42:19.810Z,45.89
2018-12-02T16:44:49.911Z,46.03
2018-12-02T16:47:19.769Z,46.29
2018-12-02T16:49:49.495Z,46.49
2018-12-02T16:52:19.252Z,45.11
2018-12-02T16:54:49.157Z,44.84
2018-12-02T16:57:19.237Z,44.22
2018-12-02T16:59:49.156Z,45.27
2018-12-02T17:02:19.098Z,44.83
2018-12-02T17:04:48.863Z,45.01
2018-12-02T17:07:18.803Z,45.11
2018-12-02T17:09:48.692Z,44.18
2018-12-02T17:12:18.476Z,43.45
2018-12-02T17:14:48.230Z,43.40
2018-12-02T17:17:17.965Z,44.78
2018-12-02T17:19:47.845Z,44.49
2018-12-02T17:22:17.724Z,44.25
2018-12-02T17:24:47.469Z,44.48
2018-12-02T17:27:17.155Z,45.19
2018-12-02T17:29:47.105Z,45.81
2018-12-02T17:32:16.906Z,45.98
2018-12-02T17:34:46.751Z,46.15
2018-12-02T17:37:16.556Z,46.61
2018-12-02T17:39:49.268Z,46.98
2018-12-02T17:42:18.989Z,47.24
2018-12-02T17:44:48.888Z,46.87
2018-12-02T17:47:18.768Z,47.56
2018-12-02T17:49:49.647Z,47.71
2018-12-02T17:52:19.478Z,47.93
2018-12-02T17:54:49.320Z,47.75
2018-12-02T17:57:18.955Z,47.36
2018-12-02T17:59:49.080Z,47.50
2018-12-02T18:02:18.859Z,48.17
2018-12-02T18:04:48.726Z,47.36
2018-12-02T18:07:18.614Z,47.00
2018-12-02T18:09:48.238Z,46.97
2018-12-02T18:12:18.896Z,46.43
2018-12-02T18:14:49.443Z,46.39
2018-12-02T18:17:19.140Z,46.23
2018-12-02T18:19:50.392Z,45.65
2018-12-02T18:22:20.217Z,45.91
2018-12-02T18:24:50.097Z,45.86
2018-12-02T18:27:19.919Z,46.40
2018-12-02T18:29:50.846Z,45.86
2018-12-02T18:32:20.759Z,46.47
2018-12-02T18:34:50.616Z,46.49
2018-12-02T18:37:20.451Z,47.51
2018-12-02T18:39:50.818Z,47.56
2018-12-02T18:42:20.824Z,46.80
2018-12-02T18:44:50.712Z,46.87
2018-12-02T18:47:21.063Z,47.33
2018-12-02T18:49:52.060Z,46.67
2018-12-02T18:52:21.894Z,47.96
2018-12-02T18:54:51.807Z,47.26
2018-12-02T18:57:22.423Z,47.03
2018-12-02T18:59:52.868Z,47.08
2018-12-02T19:02:22.680Z,47.08
2018-12-02T19:04:52.384Z,47.21
2018-12-02T19:07:22.230Z,47.19
2018-12-02T19:09:51.801Z,47.71
2018-12-02T19:12:21.721Z,47.60
2018-12-02T19:14:51.669Z,47.72
2018-12-02T19:17:21.521Z,47.99
2018-12-02T19:19:51.269Z,47.96
2018-12-02T19:22:21.092Z,47.77
2018-12-02T19:24:51.010Z,48.17
2018-12-02T19:27:20.801Z,48.08
2018-12-02T19:29:50.589Z,46.98
2018-12-02T19:32:20.545Z,47.36
2018-12-02T19:34:50.404Z,47.46
2018-12-02T19:37:20.265Z,47.30
2018-12-02T19:39:50.067Z,48.09
2018-12-02T19:42:19.930Z,47.03
2018-12-02T19:44:49.912Z,47.53
2018-12-02T19:47:19.786Z,47.70
2018-12-02T19:49:49.800Z,47.31
2018-12-02T19:52:19.643Z,46.88
2018-12-02T19:54:49.487Z,47.57
2018-12-02T19:57:19.342Z,47.84
2018-12-02T19:59:49.166Z,48.10
2018-12-02T20:02:18.924Z,48.00
2018-12-02T20:04:48.892Z,48.68
2018-12-02T20:07:18.767Z,47.93
2018-12-02T20:09:48.622Z,48.99
2018-12-02T20:12:18.373Z,48.29
2018-12-02T20:14:48.180Z,48.45
2018-12-02T20:17:18.047Z,48.82
2018-12-02T20:19:52.960Z,47.92
2018-12-02T20:22:22.688Z,48.16
2018-12-02T20:24:52.615Z,48.41
2018-12-02T20:27:22.317Z,47.61
2018-12-02T20:29:52.933Z,47.84
2018-12-02T20:32:22.678Z,47.99
2018-12-02T20:34:52.517Z,48.16
2018-12-02T20:37:22.352Z,48.22
2018-12-02T20:39:52.214Z,48.03
2018-12-02T20:42:22.449Z,47.56
2018-12-02T20:44:52.882Z,48.09
2018-12-02T20:47:22.047Z,48.15
2018-12-02T20:49:52.178Z,48.49
2018-12-02T20:52:22.113Z,48.57
2018-12-02T20:54:51.997Z,49.06
2018-12-02T20:57:21.809Z,49.03
2018-12-02T20:59:51.712Z,49.16
2018-12-02T21:02:21.357Z,48.57
2018-12-02T21:04:51.189Z,48.97
2018-12-02T21:07:20.925Z,49.32
2018-12-02T21:09:50.684Z,49.48
2018-12-02T21:12:20.385Z,48.32
2018-12-02T21:14:50.227Z,48.21
2018-12-02T21:17:20.024Z,48.77
2018-12-02T21:19:49.769Z,48.95
2018-12-02T21:22:19.508Z,49.87
2018-12-02T21:24:49.440Z,50.14
2018-12-02T21:27:19.273Z,49.76
2018-12-02T21:29:49.010Z,49.51
2018-12-02T21:32:22.506Z,49.11
2018-12-02T21:34:50.353Z,49.15
2018-12-02T21:37:20.859Z,49.57
2018-12-02T21:39:51.681Z,49.73
2018-12-02T21:42:21.596Z,50.14
2018-12-02T21:44:51.422Z,50.08
2018-12-02T21:47:21.465Z,50.24
2018-12-02T21:49:52.920Z,50.51
2018-12-02T21:52:23.851Z,50.81
2018-12-02T21:54:54.039Z,50.96
2018-12-02T21:57:24.858Z,50.88
2018-12-02T21:59:55.420Z,50.96
2018-12-02T22:02:25.833Z,50.77
2018-12-02T22:04:56.383Z,51.14
2018-12-02T22:07:26.557Z,50.68
2018-12-02T22:09:57.538Z,50.88
2018-12-02T22:12:27.970Z,50.42
2018-12-02T22:14:57.875Z,50.96
2018-12-02T22:17:29.104Z,50.60
2018-12-02T22:20:00.965Z,51.14
2018-12-02T22:22:31.698Z,52.43
2018-12-02T22:25:02.154Z,52.46
2018-12-02T22:27:32.783Z,51.94
2018-12-02T22:30:03.783Z,52.02
2018-12-02T22:32:34.324Z,51.78
2018-12-02T22:35:04.946Z,52.34
2018-12-02T22:37:35.292Z,52.28
2018-12-02T22:40:08.549Z,52.29
2018-12-02T22:42:39.135Z,52.25
2018-12-02T22:45:12.372Z,52.42
2018-12-02T22:47:42.636Z,51.86
2018-12-02T22:50:17.361Z,51.83
2018-12-02T22:52:49.432Z,51.12
2018-12-02T22:55:19.672Z,51.55
2018-12-02T22:57:50.222Z,51.85
2018-12-02T23:00:33.675Z,51.76
2018-12-02T23:03:05.450Z,52.43
2018-12-02T23:05:36.098Z,50.85
2018-12-02T23:08:06.637Z,50.33
2018-12-02T23:10:37.083Z,52.83
2018-12-02T23:13:08.159Z,52.84
2018-12-02T23:15:38.690Z,51.95
2018-12-02T23:18:10.133Z,51.67
2018-12-02T23:20:40.258Z,53.17
2018-12-02T23:23:10.396Z,51.34
2018-12-02T23:25:40.950Z,51.05
2018-12-02T23:28:11.604Z,51.44
2018-12-02T23:30:42.480Z,51.52
2018-12-02T23:33:13.180Z,51.75
2018-12-02T23:35:43.541Z,51.80
2018-12-02T23:38:14.156Z,51.84
2018-12-02T23:40:44.769Z,52.12
2018-12-02T23:43:14.668Z,50.98
2018-12-02T23:45:45.065Z,51.36
2018-12-02T23:48:14.256Z,51.08
2018-12-02T23:50:44.110Z,51.73
2018-12-02T23:53:14.342Z,51.45
2018-12-02T23:55:44.254Z,51.92
2018-12-02T23:58:14.087Z,51.63
